Aviation Digital Data Service (ADDS)

Output produced by METARs form (2255 UTC 27 January 2015)
found at http://www.aviationweather.gov/adds/metars/
 
METAR text: KCCU 272235Z AUTO 27014KT 10SM CLR 05/M13 A3039 RMK AO2
Conditions at: KCCU (RED CLIFF PASS , CO, US) observed 2235 UTC 27 January 2015
Temperature: 5.0°C (41°F)
Dewpoint: -13.0°C (9°F) [RH = 26%]
Pressure (altimeter): 30.39 inches Hg (1029.2 mb)
Winds: from the W (270 degrees) at 16 MPH (14 knots; 7.3 m/s)
Visibility: 10 or more miles (16+ km)
Ceiling: at least 12,000 feet AGL
Clouds: sky clear below 12,000 feet AGL
Weather: automated observation with no human augmentation;
there may or may not be significant weather present at this time